Orange, New Jersey
Current Conditions -  °F | °C
As of 5:51 AM on Friday 28 Nov 2014 (Local Time) from KEWR Reporting Station
Few Clouds Few Clouds  
Wind Chill: -2°   Ceiling: Unl
Heat Index: -2°   Visibility: 10mi
Dew Point: -6°   Wind: 3mph
Humidity: 75%   Direction: 260°W
Pressure: 30.12"   Gusts: NA
Location:  40.77°N, 74.23°W
Report Text: KEWR 281051Z 26003KT 10SM FEW100 M02/M06 A3012 RMK AO2 SLP197 T10171056 $
Loading
Personal Weather Stations






























Interactive Weather Map New forecast layout! Learn more

10-Day Weather Forecast

Advertisements
Track Severe Weather on mobile